Wishek, North Dakota
Current Conditions -  °F | °C
As of 12:15 PM on Tuesday 21 Oct 2014 (Local Time) from K7L2 Reporting Station
Clear Clear  
Wind Chill: 66°   Ceiling: Unl
Heat Index: 66°   Visibility: 10mi
Dew Point: 45°   Wind: 17mph
Humidity: 46%   Direction: 150°SSE
Pressure: 29.79"   Gusts: 22mph
Location:  46.26°N, 99.56°W
Report Text: K7L2 211715Z AUTO 15015G19KT 10SM CLR 19/07 A2979 RMK AO2 PWINO PNO
Loading
Personal Weather Stations






























Interactive Weather Map
Tropical Storm Tracking
New forecast layout! Learn more

10-Day Weather Forecast

Advertisements
Track Severe Weather on mobile